Aérodrome :
LOGIN :

S'inscrire | Disclaimer

   EN    FR    IT 

 










Légende :    VFR   VFR Marginal   IFR   IFR Intensif   IFR Très Intensif
Visi : 
Plafond : 
>= 8 km
>= 3000ft
5 à 8 km
1000 à 3000 ft
1500m à 5 km
500 à 1000 ft
800 à 1500m
200 à 500 ft
< 800m
< 200 ft
Symboles :   Orages  Brouillard  Fortes neiges  Fortes précipitations  Vent > 20 kt
SIGMETs :   Divers  Orages  Givrage  Turbulence  Onde Orograph.  Cendres Volcan.






- Altitude de l'aérodrome : 1249 ft


ETSN - Neuburg AB

DERNIER METAR :
  • 182220Z 21008KT 9999 BKN065 04/M01 Q1024 BLU

METARs EXPIRÉS :
  • 182120Z 19006KT 9999 FEW050 BKN065 04/M01 Q1025 BLU
  • 182108Z 19006KT 9999 FEW050 BKN065 04/M01 Q1025 BLU FCST CANCEL
  • 182020Z 20005KT 9999 BKN060 04/M00 Q1025 BLU BLU TEMPO WHT

TAF TAF ETSN
Valide du 18 à 21h jusqu'au 19 à 06h UTC


182017Z 1821/1906 24008KT 9999 NSW BKN060
TEMPO 1821/1902 23012KT 7000 -SHRA BKN020
BECMG 1902/1904 22010KT 7000 -RA BKN020
TEMPO 1904/1906 21008KT 8000 NSW BKN025 BY ETGL



MET'MAP, la Météo Aéronautique d'un coup d'oeil ! - Copyright ORBIFLY Décembre 2007 - Disclaimer

ORBIFLY MET'MAP TEAM :

Programmation & Développement : Alexandra Zaïnal
Sur une idée originale de : Baudouin d'Aumeries
Assistance à la programmation : Marc-Olivier Méhu
Soutien technique & logistique : Manuel Goepfert

Contact : metmap@orbifly.com




SOURCES & CREDITS :

   NOAA